sensor_id;sensor_type;location;lat;lon;timestamp;P1;durP1;ratioP1;P2;durP2;ratioP2
29940;SDS011;16801;53.562;10.038;2023-11-21T00:00:06;5.50;;;5.00;;
29940;SDS011;16801;53.562;10.038;2023-11-21T00:03:32;6.27;;;5.67;;
29940;SDS011;16801;53.562;10.038;2023-11-21T00:06:53;4.77;;;4.20;;
29940;SDS011;16801;53.562;10.038;2023-11-21T00:10:15;4.97;;;4.47;;
29940;SDS011;16801;53.562;10.038;2023-11-21T00:13:36;4.17;;;3.50;;
29940;SDS011;16801;53.562;10.038;2023-11-21T00:16:58;5.30;;;4.80;;
29940;SDS011;16801;53.562;10.038;2023-11-21T00:20:20;4.57;;;3.93;;
29940;SDS011;16801;53.562;10.038;2023-11-21T00:23:41;4.83;;;4.10;;
29940;SDS011;16801;53.562;10.038;2023-11-21T00:27:03;4.23;;;3.93;;
29940;SDS011;16801;53.562;10.038;2023-11-21T00:30:25;4.87;;;3.73;;
29940;SDS011;16801;53.562;10.038;2023-11-21T00:33:46;4.97;;;4.47;;
29940;SDS011;16801;53.562;10.038;2023-11-21T00:37:06;4.47;;;3.83;;
29940;SDS011;16801;53.562;10.038;2023-11-21T00:40:28;5.27;;;4.77;;
29940;SDS011;16801;53.562;10.038;2023-11-21T00:43:50;4.97;;;4.57;;
29940;SDS011;16801;53.562;10.038;2023-11-21T00:47:11;4.70;;;4.33;;
29940;SDS011;16801;53.562;10.038;2023-11-21T00:50:33;5.07;;;4.57;;
29940;SDS011;16801;53.562;10.038;2023-11-21T00:53:54;7.60;;;4.83;;
29940;SDS011;16801;53.562;10.038;2023-11-21T00:57:15;9.03;;;5.87;;
29940;SDS011;16801;53.562;10.038;2023-11-21T01:00:37;7.17;;;6.57;;
29940;SDS011;16801;53.562;10.038;2023-11-21T01:03:59;8.00;;;7.30;;
29940;SDS011;16801;53.562;10.038;2023-11-21T01:07:21;7.93;;;7.13;;
29940;SDS011;16801;53.562;10.038;2023-11-21T01:10:42;9.93;;;7.97;;
29940;SDS011;16801;53.562;10.038;2023-11-21T01:14:03;10.90;;;8.53;;
29940;SDS011;16801;53.562;10.038;2023-11-21T01:17:26;9.77;;;8.77;;
29940;SDS011;16801;53.562;10.038;2023-11-21T01:20:47;8.43;;;6.60;;
29940;SDS011;16801;53.562;10.038;2023-11-21T01:24:08;6.87;;;6.13;;
29940;SDS011;16801;53.562;10.038;2023-11-21T01:27:29;7.27;;;6.57;;
29940;SDS011;16801;53.562;10.038;2023-11-21T01:30:50;10.63;;;7.40;;
29940;SDS011;16801;53.562;10.038;2023-11-21T01:34:17;9.70;;;8.20;;
29940;SDS011;16801;53.562;10.038;2023-11-21T01:37:38;7.87;;;6.40;;
29940;SDS011;16801;53.562;10.038;2023-11-21T01:40:58;8.67;;;6.73;;
29940;SDS011;16801;53.562;10.038;2023-11-21T01:44:20;7.07;;;6.37;;
29940;SDS011;16801;53.562;10.038;2023-11-21T01:47:44;7.90;;;6.40;;
29940;SDS011;16801;53.562;10.038;2023-11-21T01:51:07;7.90;;;7.13;;
29940;SDS011;16801;53.562;10.038;2023-11-21T01:54:28;6.20;;;5.60;;
29940;SDS011;16801;53.562;10.038;2023-11-21T01:57:50;8.13;;;5.30;;
29940;SDS011;16801;53.562;10.038;2023-11-21T02:01:11;6.57;;;5.07;;
29940;SDS011;16801;53.562;10.038;2023-11-21T02:04:33;5.53;;;5.07;;
29940;SDS011;16801;53.562;10.038;2023-11-21T02:07:58;5.43;;;4.97;;
29940;SDS011;16801;53.562;10.038;2023-11-21T02:11:19;3.97;;;3.67;;
29940;SDS011;16801;53.562;10.038;2023-11-21T02:14:41;5.03;;;3.93;;
29940;SDS011;16801;53.562;10.038;2023-11-21T02:18:01;4.67;;;3.47;;
29940;SDS011;16801;53.562;10.038;2023-11-21T02:21:22;4.00;;;3.70;;
29940;SDS011;16801;53.562;10.038;2023-11-21T02:24:46;3.80;;;3.47;;
29940;SDS011;16801;53.562;10.038;2023-11-21T02:28:10;6.30;;;4.63;;
29940;SDS011;16801;53.562;10.038;2023-11-21T02:31:34;4.27;;;3.87;;
29940;SDS011;16801;53.562;10.038;2023-11-21T02:34:56;4.50;;;4.10;;
29940;SDS011;16801;53.562;10.038;2023-11-21T02:38:20;5.00;;;3.80;;
29940;SDS011;16801;53.562;10.038;2023-11-21T02:41:42;3.97;;;2.93;;
29940;SDS011;16801;53.562;10.038;2023-11-21T02:45:04;5.20;;;4.73;;
29940;SDS011;16801;53.562;10.038;2023-11-21T02:48:27;4.20;;;3.80;;
29940;SDS011;16801;53.562;10.038;2023-11-21T02:51:48;4.70;;;4.27;;
29940;SDS011;16801;53.562;10.038;2023-11-21T02:55:09;4.73;;;4.33;;
29940;SDS011;16801;53.562;10.038;2023-11-21T02:58:42;5.00;;;3.90;;
29940;SDS011;16801;53.562;10.038;2023-11-21T03:02:03;4.23;;;3.53;;
29940;SDS011;16801;53.562;10.038;2023-11-21T03:05:27;4.43;;;4.07;;
29940;SDS011;16801;53.562;10.038;2023-11-21T03:08:48;5.13;;;3.77;;
29940;SDS011;16801;53.562;10.038;2023-11-21T03:12:10;4.73;;;4.33;;
29940;SDS011;16801;53.562;10.038;2023-11-21T03:15:35;6.17;;;4.50;;
29940;SDS011;16801;53.562;10.038;2023-11-21T03:18:56;5.43;;;3.47;;
29940;SDS011;16801;53.562;10.038;2023-11-21T03:22:17;4.17;;;3.87;;
29940;SDS011;16801;53.562;10.038;2023-11-21T03:25:38;4.87;;;4.50;;
29940;SDS011;16801;53.562;10.038;2023-11-21T03:28:59;4.60;;;4.13;;
29940;SDS011;16801;53.562;10.038;2023-11-21T03:32:21;4.70;;;4.30;;
29940;SDS011;16801;53.562;10.038;2023-11-21T03:35:43;4.13;;;3.83;;
29940;SDS011;16801;53.562;10.038;2023-11-21T03:39:04;4.03;;;3.73;;
29940;SDS011;16801;53.562;10.038;2023-11-21T03:42:26;5.27;;;4.37;;
29940;SDS011;16801;53.562;10.038;2023-11-21T03:45:47;4.40;;;4.03;;
29940;SDS011;16801;53.562;10.038;2023-11-21T03:49:09;4.77;;;4.37;;
29940;SDS011;16801;53.562;10.038;2023-11-21T03:52:30;4.60;;;4.07;;
29940;SDS011;16801;53.562;10.038;2023-11-21T03:55:53;4.80;;;4.37;;
29940;SDS011;16801;53.562;10.038;2023-11-21T03:59:14;4.23;;;3.63;;
29940;SDS011;16801;53.562;10.038;2023-11-21T04:02:35;4.13;;;3.83;;
29940;SDS011;16801;53.562;10.038;2023-11-21T04:05:57;4.67;;;4.17;;
29940;SDS011;16801;53.562;10.038;2023-11-21T04:09:18;6.87;;;5.67;;
29940;SDS011;16801;53.562;10.038;2023-11-21T04:12:39;4.67;;;3.60;;
29940;SDS011;16801;53.562;10.038;2023-11-21T04:16:00;4.60;;;3.77;;
29940;SDS011;16801;53.562;10.038;2023-11-21T04:19:22;4.20;;;3.87;;
29940;SDS011;16801;53.562;10.038;2023-11-21T04:22:45;4.73;;;4.20;;
29940;SDS011;16801;53.562;10.038;2023-11-21T04:26:06;5.30;;;4.57;;
29940;SDS011;16801;53.562;10.038;2023-11-21T04:29:27;5.20;;;4.27;;
29940;SDS011;16801;53.562;10.038;2023-11-21T04:32:48;4.37;;;3.97;;
29940;SDS011;16801;53.562;10.038;2023-11-21T04:36:10;5.00;;;4.67;;
29940;SDS011;16801;53.562;10.038;2023-11-21T04:39:32;6.23;;;5.23;;
29940;SDS011;16801;53.562;10.038;2023-11-21T04:42:53;4.03;;;3.70;;
29940;SDS011;16801;53.562;10.038;2023-11-21T04:46:16;4.57;;;4.17;;
29940;SDS011;16801;53.562;10.038;2023-11-21T04:49:37;5.30;;;4.67;;
29940;SDS011;16801;53.562;10.038;2023-11-21T04:52:58;5.13;;;4.47;;
29940;SDS011;16801;53.562;10.038;2023-11-21T04:56:23;7.93;;;7.13;;
29940;SDS011;16801;53.562;10.038;2023-11-21T04:59:44;5.83;;;5.33;;
29940;SDS011;16801;53.562;10.038;2023-11-21T05:03:07;5.77;;;5.27;;
29940;SDS011;16801;53.562;10.038;2023-11-21T05:06:28;4.77;;;4.30;;
29940;SDS011;16801;53.562;10.038;2023-11-21T05:09:49;4.97;;;4.57;;
29940;SDS011;16801;53.562;10.038;2023-11-21T05:13:11;10.20;;;9.17;;
29940;SDS011;16801;53.562;10.038;2023-11-21T05:16:33;16.70;;;14.90;;
29940;SDS011;16801;53.562;10.038;2023-11-21T05:19:54;8.23;;;7.47;;
29940;SDS011;16801;53.562;10.038;2023-11-21T05:23:15;5.37;;;4.87;;
29940;SDS011;16801;53.562;10.038;2023-11-21T05:26:36;4.03;;;3.73;;
29940;SDS011;16801;53.562;10.038;2023-11-21T05:30:00;4.07;;;3.77;;
29940;SDS011;16801;53.562;10.038;2023-11-21T05:33:22;3.97;;;3.57;;
29940;SDS011;16801;53.562;10.038;2023-11-21T05:36:43;4.00;;;3.70;;
29940;SDS011;16801;53.562;10.038;2023-11-21T05:40:05;7.20;;;4.67;;
29940;SDS011;16801;53.562;10.038;2023-11-21T05:43:28;4.17;;;3.63;;
29940;SDS011;16801;53.562;10.038;2023-11-21T05:46:51;4.77;;;4.40;;
29940;SDS011;16801;53.562;10.038;2023-11-21T05:50:13;5.73;;;5.23;;
29940;SDS011;16801;53.562;10.038;2023-11-21T05:53:35;4.67;;;4.17;;
29940;SDS011;16801;53.562;10.038;2023-11-21T05:56:56;4.70;;;4.30;;
29940;SDS011;16801;53.562;10.038;2023-11-21T06:00:20;4.17;;;3.77;;
29940;SDS011;16801;53.562;10.038;2023-11-21T06:03:42;5.10;;;4.60;;
29940;SDS011;16801;53.562;10.038;2023-11-21T06:07:03;6.43;;;5.83;;
29940;SDS011;16801;53.562;10.038;2023-11-21T06:10:24;5.97;;;4.87;;
29940;SDS011;16801;53.562;10.038;2023-11-21T06:13:45;5.53;;;5.07;;
29940;SDS011;16801;53.562;10.038;2023-11-21T06:17:07;4.70;;;4.30;;
29940;SDS011;16801;53.562;10.038;2023-11-21T06:20:30;5.37;;;4.07;;
29940;SDS011;16801;53.562;10.038;2023-11-21T06:23:51;5.10;;;4.60;;
29940;SDS011;16801;53.562;10.038;2023-11-21T06:27:12;5.30;;;4.80;;
29940;SDS011;16801;53.562;10.038;2023-11-21T06:30:33;5.00;;;4.43;;
29940;SDS011;16801;53.562;10.038;2023-11-21T06:33:54;6.07;;;5.13;;
29940;SDS011;16801;53.562;10.038;2023-11-21T06:37:16;5.00;;;4.50;;
29940;SDS011;16801;53.562;10.038;2023-11-21T06:40:37;5.93;;;5.40;;
29940;SDS011;16801;53.562;10.038;2023-11-21T06:43:58;4.93;;;3.73;;
29940;SDS011;16801;53.562;10.038;2023-11-21T06:47:19;6.53;;;4.83;;
29940;SDS011;16801;53.562;10.038;2023-11-21T06:50:40;5.13;;;4.73;;
29940;SDS011;16801;53.562;10.038;2023-11-21T06:54:03;4.40;;;4.00;;
29940;SDS011;16801;53.562;10.038;2023-11-21T06:57:23;10.27;;;9.13;;
29940;SDS011;16801;53.562;10.038;2023-11-21T07:00:44;16.27;;;14.67;;
29940;SDS011;16801;53.562;10.038;2023-11-21T07:04:07;9.20;;;8.30;;
29940;SDS011;16801;53.562;10.038;2023-11-21T07:07:28;6.30;;;5.73;;
29940;SDS011;16801;53.562;10.038;2023-11-21T07:10:50;5.17;;;4.67;;
29940;SDS011;16801;53.562;10.038;2023-11-21T07:14:12;5.93;;;4.90;;
29940;SDS011;16801;53.562;10.038;2023-11-21T07:17:36;5.33;;;4.80;;
29940;SDS011;16801;53.562;10.038;2023-11-21T07:20:57;3.57;;;3.27;;
29940;SDS011;16801;53.562;10.038;2023-11-21T07:24:18;5.53;;;4.47;;
29940;SDS011;16801;53.562;10.038;2023-11-21T07:27:41;3.83;;;3.53;;
29940;SDS011;16801;53.562;10.038;2023-11-21T07:31:02;6.30;;;5.67;;
29940;SDS011;16801;53.562;10.038;2023-11-21T07:34:23;5.10;;;4.27;;
29940;SDS011;16801;53.562;10.038;2023-11-21T07:37:46;5.07;;;3.90;;
29940;SDS011;16801;53.562;10.038;2023-11-21T07:41:08;5.10;;;4.70;;
29940;SDS011;16801;53.562;10.038;2023-11-21T07:44:30;3.87;;;3.57;;
29940;SDS011;16801;53.562;10.038;2023-11-21T07:47:51;4.30;;;3.93;;
29940;SDS011;16801;53.562;10.038;2023-11-21T07:51:12;4.30;;;3.90;;
29940;SDS011;16801;53.562;10.038;2023-11-21T07:54:33;5.43;;;4.57;;
29940;SDS011;16801;53.562;10.038;2023-11-21T07:57:55;3.50;;;3.20;;
29940;SDS011;16801;53.562;10.038;2023-11-21T08:01:17;4.77;;;3.93;;
29940;SDS011;16801;53.562;10.038;2023-11-21T08:04:38;4.87;;;3.90;;
29940;SDS011;16801;53.562;10.038;2023-11-21T08:08:02;4.33;;;3.93;;
29940;SDS011;16801;53.562;10.038;2023-11-21T08:11:23;4.87;;;3.97;;
29940;SDS011;16801;53.562;10.038;2023-11-21T08:14:45;5.60;;;4.93;;
29940;SDS011;16801;53.562;10.038;2023-11-21T08:18:08;4.63;;;4.23;;
29940;SDS011;16801;53.562;10.038;2023-11-21T08:21:29;4.87;;;4.33;;
29940;SDS011;16801;53.562;10.038;2023-11-21T08:24:50;4.27;;;3.97;;
29940;SDS011;16801;53.562;10.038;2023-11-21T08:28:11;4.90;;;3.83;;
29940;SDS011;16801;53.562;10.038;2023-11-21T08:31:33;4.53;;;3.97;;
29940;SDS011;16801;53.562;10.038;2023-11-21T08:34:56;3.63;;;3.33;;
29940;SDS011;16801;53.562;10.038;2023-11-21T08:38:17;3.50;;;3.20;;
29940;SDS011;16801;53.562;10.038;2023-11-21T08:41:38;5.03;;;2.97;;
29940;SDS011;16801;53.562;10.038;2023-11-21T08:45:00;5.97;;;3.90;;
29940;SDS011;16801;53.562;10.038;2023-11-21T08:48:22;3.00;;;2.70;;
29940;SDS011;16801;53.562;10.038;2023-11-21T08:51:45;2.77;;;2.57;;
29940;SDS011;16801;53.562;10.038;2023-11-21T08:55:06;4.43;;;4.03;;
29940;SDS011;16801;53.562;10.038;2023-11-21T08:58:28;3.13;;;2.93;;
29940;SDS011;16801;53.562;10.038;2023-11-21T09:01:48;5.90;;;4.50;;
29940;SDS011;16801;53.562;10.038;2023-11-21T09:05:10;3.73;;;3.43;;
29940;SDS011;16801;53.562;10.038;2023-11-21T09:08:33;3.87;;;3.37;;
29940;SDS011;16801;53.562;10.038;2023-11-21T09:11:54;3.30;;;3.00;;
29940;SDS011;16801;53.562;10.038;2023-11-21T09:15:15;2.97;;;2.30;;
29940;SDS011;16801;53.562;10.038;2023-11-21T09:18:36;3.23;;;2.70;;
29940;SDS011;16801;53.562;10.038;2023-11-21T09:21:58;3.37;;;2.67;;
29940;SDS011;16801;53.562;10.038;2023-11-21T09:25:21;3.63;;;3.33;;
29940;SDS011;16801;53.562;10.038;2023-11-21T09:28:43;2.73;;;2.50;;
29940;SDS011;16801;53.562;10.038;2023-11-21T09:32:06;4.73;;;3.47;;
29940;SDS011;16801;53.562;10.038;2023-11-21T09:35:27;3.70;;;2.50;;
29940;SDS011;16801;53.562;10.038;2023-11-21T09:38:48;4.57;;;3.47;;
29940;SDS011;16801;53.562;10.038;2023-11-21T09:42:12;3.60;;;3.30;;
29940;SDS011;16801;53.562;10.038;2023-11-21T09:45:35;7.23;;;4.23;;
29940;SDS011;16801;53.562;10.038;2023-11-21T09:48:59;2.40;;;2.20;;
29940;SDS011;16801;53.562;10.038;2023-11-21T09:52:25;3.60;;;3.30;;
29940;SDS011;16801;53.562;10.038;2023-11-21T09:55:47;3.43;;;3.13;;
29940;SDS011;16801;53.562;10.038;2023-11-21T09:59:13;2.50;;;2.30;;
29940;SDS011;16801;53.562;10.038;2023-11-21T10:02:35;2.47;;;2.27;;
29940;SDS011;16801;53.562;10.038;2023-11-21T10:05:57;2.73;;;2.53;;
29940;SDS011;16801;53.562;10.038;2023-11-21T10:09:20;3.47;;;2.73;;
29940;SDS011;16801;53.562;10.038;2023-11-21T10:12:41;3.77;;;1.80;;
29940;SDS011;16801;53.562;10.038;2023-11-21T10:16:06;2.97;;;2.63;;
29940;SDS011;16801;53.562;10.038;2023-11-21T10:19:31;2.23;;;2.00;;
29940;SDS011;16801;53.562;10.038;2023-11-21T10:22:53;2.60;;;2.40;;
29940;SDS011;16801;53.562;10.038;2023-11-21T10:26:13;3.33;;;3.13;;
29940;SDS011;16801;53.562;10.038;2023-11-21T10:29:35;3.67;;;2.50;;
29940;SDS011;16801;53.562;10.038;2023-11-21T10:32:59;3.37;;;2.60;;
29940;SDS011;16801;53.562;10.038;2023-11-21T10:36:25;2.23;;;2.03;;
29940;SDS011;16801;53.562;10.038;2023-11-21T10:39:47;1.57;;;1.47;;
29940;SDS011;16801;53.562;10.038;2023-11-21T10:43:07;2.07;;;1.60;;
29940;SDS011;16801;53.562;10.038;2023-11-21T10:46:29;1.80;;;1.70;;
29940;SDS011;16801;53.562;10.038;2023-11-21T10:49:52;2.60;;;2.40;;
29940;SDS011;16801;53.562;10.038;2023-11-21T10:53:13;1.93;;;1.70;;
29940;SDS011;16801;53.562;10.038;2023-11-21T10:56:34;2.63;;;2.43;;
29940;SDS011;16801;53.562;10.038;2023-11-21T11:00:00;2.10;;;2.00;;
29940;SDS011;16801;53.562;10.038;2023-11-21T11:03:23;1.77;;;1.67;;
29940;SDS011;16801;53.562;10.038;2023-11-21T11:06:45;2.93;;;1.93;;
29940;SDS011;16801;53.562;10.038;2023-11-21T11:10:17;2.50;;;2.23;;
29940;SDS011;16801;53.562;10.038;2023-11-21T11:13:43;4.47;;;2.60;;
29940;SDS011;16801;53.562;10.038;2023-11-21T11:17:05;2.43;;;1.87;;
29940;SDS011;16801;53.562;10.038;2023-11-21T11:20:29;2.33;;;2.10;;
29940;SDS011;16801;53.562;10.038;2023-11-21T11:24:01;2.70;;;2.50;;
29940;SDS011;16801;53.562;10.038;2023-11-21T11:27:35;5.30;;;4.57;;
29940;SDS011;16801;53.562;10.038;2023-11-21T11:31:04;2.40;;;2.20;;
29940;SDS011;16801;53.562;10.038;2023-11-21T11:34:34;2.37;;;2.27;;
29940;SDS011;16801;53.562;10.038;2023-11-21T11:38:01;2.33;;;2.10;;
29940;SDS011;16801;53.562;10.038;2023-11-21T11:41:25;2.73;;;2.50;;
29940;SDS011;16801;53.562;10.038;2023-11-21T11:44:50;2.70;;;2.00;;
29940;SDS011;16801;53.562;10.038;2023-11-21T11:48:16;2.83;;;2.63;;
29940;SDS011;16801;53.562;10.038;2023-11-21T11:51:37;2.40;;;2.20;;
29940;SDS011;16801;53.562;10.038;2023-11-21T11:55:01;2.00;;;1.90;;
29940;SDS011;16801;53.562;10.038;2023-11-21T11:58:24;3.07;;;2.87;;
29940;SDS011;16801;53.562;10.038;2023-11-21T12:01:58;2.47;;;2.27;;
29940;SDS011;16801;53.562;10.038;2023-11-21T12:05:19;1.70;;;1.60;;
29940;SDS011;16801;53.562;10.038;2023-11-21T12:08:42;3.40;;;3.10;;
29940;SDS011;16801;53.562;10.038;2023-11-21T12:12:05;2.10;;;2.00;;
29940;SDS011;16801;53.562;10.038;2023-11-21T12:15:28;1.90;;;1.60;;
29940;SDS011;16801;53.562;10.038;2023-11-21T12:18:50;2.67;;;2.47;;
29940;SDS011;16801;53.562;10.038;2023-11-21T12:22:11;1.97;;;1.87;;
29940;SDS011;16801;53.562;10.038;2023-11-21T12:25:33;2.20;;;2.10;;
29940;SDS011;16801;53.562;10.038;2023-11-21T12:28:56;1.63;;;1.53;;
29940;SDS011;16801;53.562;10.038;2023-11-21T12:32:18;1.97;;;1.87;;
29940;SDS011;16801;53.562;10.038;2023-11-21T12:35:40;1.70;;;1.60;;
29940;SDS011;16801;53.562;10.038;2023-11-21T12:39:03;2.43;;;2.23;;
29940;SDS011;16801;53.562;10.038;2023-11-21T12:42:24;2.37;;;2.17;;
29940;SDS011;16801;53.562;10.038;2023-11-21T12:45:46;2.50;;;2.30;;
29940;SDS011;16801;53.562;10.038;2023-11-21T12:49:08;2.63;;;2.23;;
29940;SDS011;16801;53.562;10.038;2023-11-21T12:52:36;3.00;;;2.80;;
29940;SDS011;16801;53.562;10.038;2023-11-21T12:55:58;1.83;;;1.73;;
29940;SDS011;16801;53.562;10.038;2023-11-21T12:59:20;2.37;;;1.80;;
29940;SDS011;16801;53.562;10.038;2023-11-21T13:02:41;2.70;;;2.50;;
29940;SDS011;16801;53.562;10.038;2023-11-21T13:06:04;1.80;;;1.70;;
29940;SDS011;16801;53.562;10.038;2023-11-21T13:09:27;3.77;;;1.93;;
29940;SDS011;16801;53.562;10.038;2023-11-21T13:12:48;4.50;;;3.70;;
29940;SDS011;16801;53.562;10.038;2023-11-21T13:16:11;2.03;;;1.93;;
29940;SDS011;16801;53.562;10.038;2023-11-21T13:19:34;1.77;;;1.67;;
29940;SDS011;16801;53.562;10.038;2023-11-21T13:22:57;2.60;;;2.10;;
29940;SDS011;16801;53.562;10.038;2023-11-21T13:26:18;2.30;;;2.20;;
29940;SDS011;16801;53.562;10.038;2023-11-21T13:29:43;2.27;;;1.37;;
29940;SDS011;16801;53.562;10.038;2023-11-21T13:33:04;1.63;;;1.53;;
29940;SDS011;16801;53.562;10.038;2023-11-21T13:36:26;2.00;;;1.80;;
29940;SDS011;16801;53.562;10.038;2023-11-21T13:39:55;1.93;;;1.83;;
29940;SDS011;16801;53.562;10.038;2023-11-21T13:43:17;2.40;;;2.20;;
29940;SDS011;16801;53.562;10.038;2023-11-21T13:46:41;3.57;;;2.17;;
29940;SDS011;16801;53.562;10.038;2023-11-21T13:50:02;2.33;;;1.77;;
29940;SDS011;16801;53.562;10.038;2023-11-21T13:53:26;2.27;;;1.73;;
29940;SDS011;16801;53.562;10.038;2023-11-21T13:56:48;1.90;;;1.80;;
29940;SDS011;16801;53.562;10.038;2023-11-21T14:00:11;2.00;;;1.80;;
29940;SDS011;16801;53.562;10.038;2023-11-21T14:03:52;2.03;;;1.93;;
29940;SDS011;16801;53.562;10.038;2023-11-21T14:07:19;1.63;;;1.53;;
29940;SDS011;16801;53.562;10.038;2023-11-21T14:10:51;1.57;;;1.47;;
29940;SDS011;16801;53.562;10.038;2023-11-21T14:14:19;2.20;;;2.00;;
29940;SDS011;16801;53.562;10.038;2023-11-21T14:17:40;2.20;;;2.10;;
29940;SDS011;16801;53.562;10.038;2023-11-21T14:21:01;2.10;;;1.90;;
29940;SDS011;16801;53.562;10.038;2023-11-21T14:24:22;3.40;;;1.60;;
29940;SDS011;16801;53.562;10.038;2023-11-21T14:27:44;3.73;;;2.43;;
29940;SDS011;16801;53.562;10.038;2023-11-21T14:31:07;1.47;;;1.37;;
29940;SDS011;16801;53.562;10.038;2023-11-21T14:34:32;2.10;;;2.00;;
29940;SDS011;16801;53.562;10.038;2023-11-21T14:37:53;1.40;;;1.30;;
29940;SDS011;16801;53.562;10.038;2023-11-21T14:41:14;2.80;;;2.60;;
29940;SDS011;16801;53.562;10.038;2023-11-21T14:44:36;2.40;;;2.23;;
29940;SDS011;16801;53.562;10.038;2023-11-21T14:48:02;2.50;;;1.20;;
29940;SDS011;16801;53.562;10.038;2023-11-21T14:51:27;1.97;;;1.40;;
29940;SDS011;16801;53.562;10.038;2023-11-21T14:54:50;2.93;;;2.73;;
29940;SDS011;16801;53.562;10.038;2023-11-21T14:58:23;2.77;;;1.83;;
29940;SDS011;16801;53.562;10.038;2023-11-21T15:01:47;5.80;;;4.93;;
29940;SDS011;16801;53.562;10.038;2023-11-21T15:05:16;8.80;;;7.90;;
29940;SDS011;16801;53.562;10.038;2023-11-21T15:08:38;3.83;;;3.53;;
29940;SDS011;16801;53.562;10.038;2023-11-21T15:12:03;1.93;;;1.83;;
29940;SDS011;16801;53.562;10.038;2023-11-21T15:15:33;2.27;;;1.70;;
29940;SDS011;16801;53.562;10.038;2023-11-21T15:18:56;1.40;;;1.30;;
29940;SDS011;16801;53.562;10.038;2023-11-21T15:22:19;1.90;;;1.70;;
29940;SDS011;16801;53.562;10.038;2023-11-21T15:25:39;1.73;;;1.63;;
29940;SDS011;16801;53.562;10.038;2023-11-21T15:29:00;1.60;;;1.27;;
29940;SDS011;16801;53.562;10.038;2023-11-21T15:32:21;1.50;;;1.40;;
29940;SDS011;16801;53.562;10.038;2023-11-21T15:35:42;1.13;;;1.00;;
29940;SDS011;16801;53.562;10.038;2023-11-21T15:39:05;1.00;;;1.00;;
29940;SDS011;16801;53.562;10.038;2023-11-21T15:42:26;1.97;;;1.87;;
29940;SDS011;16801;53.562;10.038;2023-11-21T15:45:47;1.60;;;1.50;;
29940;SDS011;16801;53.562;10.038;2023-11-21T15:49:09;2.53;;;2.03;;
29940;SDS011;16801;53.562;10.038;2023-11-21T15:52:32;1.20;;;1.10;;
29940;SDS011;16801;53.562;10.038;2023-11-21T15:55:55;1.57;;;1.47;;
29940;SDS011;16801;53.562;10.038;2023-11-21T15:59:16;2.17;;;2.03;;
29940;SDS011;16801;53.562;10.038;2023-11-21T16:02:37;1.43;;;1.17;;
29940;SDS011;16801;53.562;10.038;2023-11-21T16:05:58;1.87;;;1.70;;
29940;SDS011;16801;53.562;10.038;2023-11-21T16:09:19;2.33;;;1.67;;
29940;SDS011;16801;53.562;10.038;2023-11-21T16:12:44;1.57;;;1.47;;
29940;SDS011;16801;53.562;10.038;2023-11-21T16:16:06;1.87;;;1.30;;
29940;SDS011;16801;53.562;10.038;2023-11-21T16:19:27;3.23;;;1.73;;
29940;SDS011;16801;53.562;10.038;2023-11-21T16:22:49;2.50;;;2.30;;
29940;SDS011;16801;53.562;10.038;2023-11-21T16:26:10;1.87;;;1.43;;
29940;SDS011;16801;53.562;10.038;2023-11-21T16:29:33;1.87;;;1.77;;
29940;SDS011;16801;53.562;10.038;2023-11-21T16:37:16;2.00;;;1.87;;
29940;SDS011;16801;53.562;10.038;2023-11-21T16:40:37;2.40;;;2.20;;
29940;SDS011;16801;53.562;10.038;2023-11-21T16:43:58;2.00;;;1.83;;
29940;SDS011;16801;53.562;10.038;2023-11-21T16:47:21;2.27;;;2.07;;
29940;SDS011;16801;53.562;10.038;2023-11-21T16:50:43;1.70;;;1.60;;
29940;SDS011;16801;53.562;10.038;2023-11-21T16:54:04;2.37;;;2.17;;
29940;SDS011;16801;53.562;10.038;2023-11-21T16:57:25;2.90;;;2.23;;
29940;SDS011;16801;53.562;10.038;2023-11-21T17:00:46;1.80;;;1.70;;
29940;SDS011;16801;53.562;10.038;2023-11-21T17:04:08;2.10;;;1.90;;
29940;SDS011;16801;53.562;10.038;2023-11-21T17:07:31;2.20;;;2.10;;
29940;SDS011;16801;53.562;10.038;2023-11-21T17:10:52;1.97;;;1.77;;
29940;SDS011;16801;53.562;10.038;2023-11-21T17:14:13;2.13;;;1.93;;
29940;SDS011;16801;53.562;10.038;2023-11-21T17:17:33;1.43;;;1.30;;
29940;SDS011;16801;53.562;10.038;2023-11-21T17:20:56;1.70;;;1.60;;
29940;SDS011;16801;53.562;10.038;2023-11-21T17:24:17;2.60;;;1.70;;
29940;SDS011;16801;53.562;10.038;2023-11-21T17:27:38;2.10;;;1.90;;
29940;SDS011;16801;53.562;10.038;2023-11-21T17:30:59;2.20;;;2.00;;
29940;SDS011;16801;53.562;10.038;2023-11-21T17:34:20;1.67;;;1.37;;
29940;SDS011;16801;53.562;10.038;2023-11-21T17:37:42;1.53;;;1.40;;
29940;SDS011;16801;53.562;10.038;2023-11-21T17:41:06;7.03;;;2.03;;
29940;SDS011;16801;53.562;10.038;2023-11-21T17:44:30;1.30;;;1.20;;
29940;SDS011;16801;53.562;10.038;2023-11-21T17:47:50;1.60;;;1.50;;
29940;SDS011;16801;53.562;10.038;2023-11-21T17:51:12;3.03;;;2.40;;
29940;SDS011;16801;53.562;10.038;2023-11-21T17:54:37;2.80;;;2.57;;
29940;SDS011;16801;53.562;10.038;2023-11-21T17:57:59;4.00;;;3.10;;
29940;SDS011;16801;53.562;10.038;2023-11-21T18:01:20;2.57;;;2.37;;
29940;SDS011;16801;53.562;10.038;2023-11-21T18:04:41;10.10;;;6.30;;
29940;SDS011;16801;53.562;10.038;2023-11-21T18:08:04;7.73;;;5.47;;
29940;SDS011;16801;53.562;10.038;2023-11-21T18:11:27;7.03;;;6.43;;
29940;SDS011;16801;53.562;10.038;2023-11-21T18:14:50;7.37;;;5.50;;
29940;SDS011;16801;53.562;10.038;2023-11-21T18:18:11;10.60;;;7.23;;
29940;SDS011;16801;53.562;10.038;2023-11-21T18:21:32;3.93;;;2.97;;
29940;SDS011;16801;53.562;10.038;2023-11-21T18:24:53;11.47;;;10.07;;
29940;SDS011;16801;53.562;10.038;2023-11-21T18:28:15;9.30;;;7.57;;
29940;SDS011;16801;53.562;10.038;2023-11-21T18:31:39;6.63;;;5.93;;
29940;SDS011;16801;53.562;10.038;2023-11-21T18:34:59;4.60;;;3.97;;
29940;SDS011;16801;53.562;10.038;2023-11-21T18:38:20;7.53;;;6.13;;
29940;SDS011;16801;53.562;10.038;2023-11-21T18:41:41;5.83;;;4.90;;
29940;SDS011;16801;53.562;10.038;2023-11-21T18:45:04;3.87;;;3.57;;
29940;SDS011;16801;53.562;10.038;2023-11-21T18:48:28;2.77;;;2.57;;
29940;SDS011;16801;53.562;10.038;2023-11-21T18:51:49;2.73;;;2.00;;
29940;SDS011;16801;53.562;10.038;2023-11-21T18:55:10;4.60;;;4.17;;
29940;SDS011;16801;53.562;10.038;2023-11-21T18:58:33;6.60;;;5.90;;
29940;SDS011;16801;53.562;10.038;2023-11-21T19:01:56;12.50;;;9.77;;
29940;SDS011;16801;53.562;10.038;2023-11-21T19:05:17;23.90;;;18.60;;
29940;SDS011;16801;53.562;10.038;2023-11-21T19:08:40;6.40;;;5.57;;
29940;SDS011;16801;53.562;10.038;2023-11-21T19:12:01;9.53;;;7.53;;
29940;SDS011;16801;53.562;10.038;2023-11-21T19:15:22;22.23;;;18.33;;
29940;SDS011;16801;53.562;10.038;2023-11-21T19:18:46;9.17;;;7.37;;
29940;SDS011;16801;53.562;10.038;2023-11-21T19:22:08;8.03;;;7.23;;
29940;SDS011;16801;53.562;10.038;2023-11-21T19:25:28;16.70;;;13.63;;
29940;SDS011;16801;53.562;10.038;2023-11-21T19:28:51;5.13;;;3.80;;
29940;SDS011;16801;53.562;10.038;2023-11-21T19:32:12;9.20;;;7.23;;
29940;SDS011;16801;53.562;10.038;2023-11-21T19:35:35;8.77;;;7.87;;
29940;SDS011;16801;53.562;10.038;2023-11-21T19:38:58;7.27;;;5.67;;
29940;SDS011;16801;53.562;10.038;2023-11-21T19:42:19;5.70;;;5.17;;
29940;SDS011;16801;53.562;10.038;2023-11-21T19:45:40;7.93;;;5.67;;
29940;SDS011;16801;53.562;10.038;2023-11-21T19:49:04;10.57;;;9.47;;
29940;SDS011;16801;53.562;10.038;2023-11-21T19:52:30;7.53;;;6.83;;
29940;SDS011;16801;53.562;10.038;2023-11-21T19:55:51;3.93;;;3.57;;
29940;SDS011;16801;53.562;10.038;2023-11-21T19:59:12;8.70;;;7.80;;
29940;SDS011;16801;53.562;10.038;2023-11-21T20:02:35;6.47;;;5.57;;